createdAt,value
2019-04-22T00:00:36.137Z,4.45
2019-04-22T00:03:05.267Z,4.12
2019-04-22T00:05:55.161Z,3.95
2019-04-22T00:08:32.703Z,4.30
2019-04-22T00:11:05.689Z,4.30
2019-04-22T00:13:35.387Z,4.33
2019-04-22T00:15:47.848Z,4.22
2019-04-22T00:18:40.525Z,4.70
2019-04-22T00:21:02.319Z,4.40
2019-04-22T00:23:24.554Z,4.20
2019-04-22T00:26:06.966Z,4.33
2019-04-22T00:28:32.146Z,5.03
2019-04-22T00:31:05.078Z,4.90
2019-04-22T00:33:34.282Z,4.20
2019-04-22T00:36:07.411Z,3.90
2019-04-22T00:38:38.685Z,4.80
2019-04-22T00:41:10.322Z,4.15
2019-04-22T00:43:37.502Z,4.97
2019-04-22T00:46:02.735Z,5.10
2019-04-22T00:48:37.997Z,4.42
2019-04-22T00:51:06.133Z,5.30
2019-04-22T00:53:36.091Z,4.85
2019-04-22T00:56:10.633Z,4.67
2019-04-22T00:58:36.545Z,4.60
2019-04-22T01:01:07.861Z,4.60
2019-04-22T01:03:46.208Z,4.25
2019-04-22T01:06:12.371Z,4.45
2019-04-22T01:11:31.118Z,4.08
2019-04-22T01:14:01.261Z,4.05
2019-04-22T01:16:29.666Z,4.42
2019-04-22T01:19:00.566Z,4.25
2019-04-22T01:21:37.011Z,4.78
2019-04-22T01:23:59.866Z,4.40
2019-04-22T01:26:25.523Z,4.03
2019-04-22T01:28:50.481Z,4.33
2019-04-22T01:31:12.572Z,4.08
2019-04-22T01:33:42.951Z,4.10
2019-04-22T01:36:25.861Z,4.15
2019-04-22T01:38:58.258Z,4.45
2019-04-22T01:41:41.762Z,4.03
2019-04-22T01:46:36.695Z,4.03
2019-04-22T01:48:59.554Z,4.28
2019-04-22T01:51:47.223Z,4.08
2019-04-22T01:54:05.565Z,4.15
2019-04-22T01:56:38.876Z,3.80
2019-04-22T01:58:54.943Z,4.03
2019-04-22T02:01:41.599Z,3.75
2019-04-22T02:04:00.905Z,4.15
2019-04-22T02:06:35.113Z,3.83
2019-04-22T02:09:15.775Z,4.10
2019-04-22T02:11:39.342Z,3.77
2019-04-22T02:14:09.171Z,4.03
2019-04-22T02:16:34.630Z,4.28
2019-04-22T02:19:13.261Z,4.10
2019-04-22T02:21:31.599Z,4.25
2019-04-22T02:24:06.999Z,4.45
2019-04-22T02:26:35.802Z,5.05
2019-04-22T02:29:03.310Z,5.30
2019-04-22T02:31:45.298Z,4.87
2019-04-22T02:34:22.330Z,4.45
2019-04-22T02:36:51.356Z,4.87
2019-04-22T02:39:12.199Z,4.75
2019-04-22T02:41:35.048Z,4.47
2019-04-22T02:44:12.933Z,4.65
2019-04-22T02:47:08.460Z,4.40
2019-04-22T02:51:32.864Z,3.85
2019-04-22T02:59:09.566Z,3.95
2019-04-22T03:01:41.250Z,4.15
2019-04-22T03:09:16.317Z,4.47
2019-04-22T03:14:04.641Z,4.67
2019-04-22T03:16:41.217Z,4.70
2019-04-22T03:21:38.132Z,4.45
2019-04-22T03:24:20.482Z,4.40
2019-04-22T03:29:06.069Z,5.55
2019-04-22T03:37:10.838Z,4.83
2019-04-22T03:44:30.986Z,4.55
2019-04-22T03:47:09.323Z,4.92
2019-04-22T03:52:05.495Z,4.10
2019-04-22T03:54:29.771Z,4.15
2019-04-22T03:57:18.127Z,4.28
2019-04-22T03:59:29.476Z,4.40
2019-04-22T04:01:56.230Z,4.42
2019-04-22T04:04:24.326Z,4.20
2019-04-22T04:07:02.033Z,3.92
2019-04-22T04:09:27.036Z,3.83
2019-04-22T04:12:00.081Z,3.90
2019-04-22T04:16:56.215Z,4.08
2019-04-22T04:19:34.176Z,4.12
2019-04-22T04:21:48.841Z,4.20
2019-04-22T04:31:58.290Z,4.37
2019-04-22T04:34:43.814Z,4.30
2019-04-22T04:37:25.348Z,3.98
2019-04-22T04:39:26.708Z,4.00
2019-04-22T04:42:05.349Z,3.60
2019-04-22T04:49:24.022Z,3.45
2019-04-22T04:54:30.627Z,3.42
2019-04-22T04:56:47.012Z,3.87
2019-04-22T04:59:46.007Z,3.72
2019-04-22T05:04:31.719Z,4.37
2019-04-22T05:07:00.084Z,3.95
2019-04-22T05:09:19.685Z,4.42
2019-04-22T05:14:22.908Z,4.20
2019-04-22T05:16:54.782Z,4.05
2019-04-22T05:19:20.834Z,4.50
2019-04-22T05:21:47.157Z,5.28
2019-04-22T05:27:08.751Z,4.15
2019-04-22T05:29:19.482Z,4.40
2019-04-22T05:31:52.238Z,4.37
2019-04-22T05:34:19.478Z,4.35
2019-04-22T05:36:47.755Z,3.90
2019-04-22T05:41:41.622Z,3.80
2019-04-22T05:44:15.828Z,3.62
2019-04-22T05:46:42.280Z,4.22
2019-04-22T05:51:41.704Z,4.80
2019-04-22T05:54:19.045Z,4.55
2019-04-22T05:56:55.104Z,4.92
2019-04-22T05:59:17.747Z,4.50
2019-04-22T06:01:52.050Z,4.30
2019-04-22T06:04:19.833Z,4.05
2019-04-22T06:06:42.286Z,4.20
2019-04-22T06:09:16.931Z,3.95
2019-04-22T06:11:36.316Z,4.12
2019-04-22T06:14:19.117Z,3.70
2019-04-22T06:16:44.260Z,3.60
2019-04-22T06:19:14.406Z,3.92
2019-04-22T06:21:41.779Z,3.95
2019-04-22T06:24:23.549Z,4.30
2019-04-22T06:26:53.989Z,3.40
2019-04-22T06:29:16.564Z,3.52
2019-04-22T06:34:18.670Z,3.72
2019-04-22T06:39:25.886Z,3.60
2019-04-22T06:41:56.547Z,3.60
2019-04-22T06:44:32.309Z,3.30
2019-04-22T06:46:47.192Z,3.50
2019-04-22T06:49:18.715Z,3.30
2019-04-22T06:51:48.786Z,3.37
2019-04-22T06:54:14.142Z,3.22
2019-04-22T06:56:48.411Z,3.30
2019-04-22T06:59:11.861Z,3.08
2019-04-22T07:04:14.107Z,3.20
2019-04-22T07:06:48.709Z,3.40
2019-04-22T07:09:34.977Z,3.62
2019-04-22T07:11:42.948Z,3.27
2019-04-22T07:14:09.362Z,3.60
2019-04-22T07:16:44.667Z,3.52
2019-04-22T07:19:13.779Z,3.30
2019-04-22T07:21:44.211Z,3.40
2019-04-22T07:24:34.568Z,3.67
2019-04-22T07:26:44.975Z,3.10
2019-04-22T07:29:17.573Z,3.30
2019-04-22T07:31:53.059Z,3.65
2019-04-22T07:34:24.472Z,3.55
2019-04-22T07:37:10.914Z,3.10
2019-04-22T07:39:15.596Z,3.12
2019-04-22T07:41:44.594Z,3.17
2019-04-22T07:44:36.248Z,3.00
2019-04-22T07:46:51.589Z,3.15
2019-04-22T07:49:18.264Z,3.90
2019-04-22T07:51:43.642Z,2.98
2019-04-22T07:54:17.777Z,2.92
2019-04-22T07:56:50.766Z,3.37
2019-04-22T07:59:18.563Z,3.02
2019-04-22T08:01:42.229Z,2.62
2019-04-22T08:04:22.869Z,2.83
2019-04-22T08:06:52.336Z,2.90
2019-04-22T08:09:20.291Z,2.10
2019-04-22T08:11:51.353Z,2.35
2019-04-22T08:14:24.647Z,2.47
2019-04-22T08:16:51.836Z,2.50
2019-04-22T08:19:23.170Z,2.42
2019-04-22T08:21:50.908Z,2.42
2019-04-22T08:24:14.617Z,2.10
2019-04-22T08:26:52.003Z,2.25
2019-04-22T08:29:19.129Z,1.70
2019-04-22T08:31:51.396Z,1.77
2019-04-22T08:34:23.265Z,1.65
2019-04-22T08:37:13.755Z,1.70
2019-04-22T08:39:21.720Z,1.95
2019-04-22T08:41:40.230Z,2.00
2019-04-22T08:44:21.401Z,1.82
2019-04-22T08:46:50.946Z,1.80
2019-04-22T08:49:10.170Z,1.85
2019-04-22T08:51:42.555Z,1.80
2019-04-22T08:54:28.308Z,2.10
2019-04-22T08:56:45.609Z,2.22
2019-04-22T08:59:28.142Z,2.10
2019-04-22T09:01:46.300Z,2.15
2019-04-22T09:04:12.303Z,2.10
2019-04-22T09:07:07.607Z,2.20
2019-04-22T09:09:25.018Z,1.75
2019-04-22T09:14:17.274Z,2.12
2019-04-22T09:17:05.674Z,1.98
2019-04-22T09:19:19.704Z,2.00
2019-04-22T09:21:57.534Z,2.05
2019-04-22T09:24:16.839Z,2.20
2019-04-22T09:26:51.387Z,2.10
2019-04-22T09:29:26.781Z,2.30
2019-04-22T09:31:57.084Z,2.30
2019-04-22T09:34:22.801Z,2.30
2019-04-22T09:36:50.181Z,2.33
2019-04-22T09:39:21.784Z,1.87
2019-04-22T09:44:16.350Z,1.92
2019-04-22T09:46:46.815Z,2.00
2019-04-22T09:49:30.154Z,1.87
2019-04-22T09:51:54.025Z,1.60
2019-04-22T09:54:21.720Z,1.62
2019-04-22T09:56:49.279Z,1.42
2019-04-22T09:59:20.551Z,1.65
2019-04-22T10:01:57.126Z,1.42
2019-04-22T10:04:16.051Z,1.45
2019-04-22T10:06:42.271Z,1.50
2019-04-22T10:09:34.741Z,1.67
2019-04-22T10:12:02.683Z,1.80
2019-04-22T10:14:19.064Z,1.70
2019-04-22T10:16:51.858Z,1.60
2019-04-22T10:19:17.093Z,1.95
2019-04-22T10:21:54.153Z,1.60
2019-04-22T10:24:35.219Z,1.62
2019-04-22T10:27:02.145Z,1.60
2019-04-22T10:29:20.178Z,1.50
2019-04-22T10:31:52.436Z,1.92
2019-04-22T10:34:08.302Z,1.60
2019-04-22T10:36:25.605Z,1.60
2019-04-22T10:38:54.745Z,2.08
2019-04-22T10:41:23.249Z,2.00
2019-04-22T10:43:52.853Z,2.00
2019-04-22T10:46:22.184Z,2.00
2019-04-22T10:48:52.636Z,2.02
2019-04-22T10:51:22.250Z,1.70
2019-04-22T10:53:51.246Z,1.90
2019-04-22T10:56:20.873Z,2.10
2019-04-22T10:58:50.738Z,2.50
2019-04-22T11:01:19.175Z,2.00
2019-04-22T11:03:49.096Z,2.20
2019-04-22T11:06:17.464Z,2.30
2019-04-22T11:08:52.402Z,2.05
2019-04-22T11:11:31.426Z,2.10
2019-04-22T11:13:47.485Z,1.98
2019-04-22T11:16:17.292Z,1.70
2019-04-22T11:18:45.549Z,1.80
2019-04-22T11:21:13.853Z,1.30
2019-04-22T11:23:42.696Z,1.60
2019-04-22T11:26:12.194Z,1.65
2019-04-22T11:28:41.377Z,1.75
2019-04-22T11:31:10.487Z,1.65
2019-04-22T11:33:38.738Z,1.60
2019-04-22T11:36:08.053Z,1.70
2019-04-22T11:38:38.938Z,1.60
2019-04-22T11:41:07.236Z,2.00
2019-04-22T11:43:36.221Z,1.85
2019-04-22T11:46:07.289Z,1.62
2019-04-22T11:48:35.989Z,1.57
2019-04-22T11:51:04.468Z,1.57
2019-04-22T11:53:32.753Z,1.70
2019-04-22T11:56:00.933Z,1.62
2019-04-22T11:58:30.658Z,1.57
2019-04-22T12:00:59.386Z,1.50
2019-04-22T12:03:28.676Z,1.42
2019-04-22T12:05:57.879Z,1.60
2019-04-22T12:08:27.017Z,1.57
2019-04-22T12:11:00.321Z,1.50
2019-04-22T12:13:26.178Z,1.62
2019-04-22T12:15:55.502Z,1.45
2019-04-22T12:18:24.927Z,2.12
2019-04-22T12:20:55.097Z,1.98
2019-04-22T12:23:25.068Z,1.98
2019-04-22T12:26:01.269Z,1.60
2019-04-22T12:28:23.630Z,1.60
2019-04-22T12:30:53.333Z,1.90
2019-04-22T12:33:23.278Z,1.90
2019-04-22T12:35:52.793Z,1.90
2019-04-22T12:38:22.173Z,2.00
2019-04-22T12:40:56.441Z,1.70
2019-04-22T12:43:23.820Z,1.70
2019-04-22T12:45:52.169Z,1.50
2019-04-22T12:48:21.376Z,1.70
2019-04-22T12:50:52.127Z,2.25
2019-04-22T12:53:23.517Z,1.50
2019-04-22T12:55:50.310Z,1.55
2019-04-22T12:58:20.022Z,1.65
2019-04-22T13:00:48.554Z,1.62
2019-04-22T13:03:18.185Z,1.67
2019-04-22T13:05:47.066Z,1.60
2019-04-22T13:08:15.826Z,1.80
2019-04-22T13:10:53.326Z,1.90
2019-04-22T13:13:15.413Z,1.55
2019-04-22T13:15:44.612Z,2.10
2019-04-22T13:18:21.445Z,1.90
2019-04-22T13:20:44.296Z,1.70
2019-04-22T13:23:13.814Z,1.80
2019-04-22T13:25:42.895Z,1.60
2019-04-22T13:28:11.378Z,1.70
2019-04-22T13:30:40.916Z,1.60
2019-04-22T13:33:10.566Z,1.70
2019-04-22T13:35:39.446Z,1.70
2019-04-22T13:38:09.075Z,1.45
2019-04-22T13:40:37.398Z,1.40
2019-04-22T13:43:06.992Z,1.65
2019-04-22T13:45:36.166Z,1.60
2019-04-22T13:48:28.139Z,1.47
2019-04-22T13:51:21.945Z,1.50
2019-04-22T13:55:56.449Z,1.72
2019-04-22T13:58:21.214Z,1.70
2019-04-22T14:00:36.616Z,1.50
2019-04-22T14:03:06.892Z,1.70
2019-04-22T14:05:37.195Z,1.67
2019-04-22T14:08:07.927Z,1.62
2019-04-22T14:10:36.374Z,1.50
2019-04-22T14:13:05.711Z,1.77
2019-04-22T14:15:34.330Z,1.60
2019-04-22T14:18:03.086Z,1.60
2019-04-22T14:20:32.717Z,1.77
2019-04-22T14:23:03.097Z,1.57
2019-04-22T14:25:32.491Z,1.70
2019-04-22T14:28:06.371Z,1.72
2019-04-22T14:30:30.709Z,1.95
2019-04-22T14:33:00.055Z,1.75
2019-04-22T14:35:29.130Z,1.65
2019-04-22T14:37:58.235Z,1.60
2019-04-22T14:40:28.754Z,1.87
2019-04-22T14:43:21.406Z,1.60
2019-04-22T14:46:04.298Z,1.60
2019-04-22T14:48:20.039Z,2.90
2019-04-22T14:50:45.204Z,1.65
2019-04-22T14:53:14.327Z,1.75
2019-04-22T14:55:30.639Z,1.77
2019-04-22T14:57:57.041Z,2.02
2019-04-22T15:00:26.310Z,1.92
2019-04-22T15:02:55.554Z,1.70
2019-04-22T15:05:23.961Z,1.75
2019-04-22T15:07:53.033Z,1.82
2019-04-22T15:10:22.230Z,1.67
2019-04-22T15:12:53.897Z,1.82
2019-04-22T15:15:40.496Z,1.67
2019-04-22T15:18:06.412Z,1.90
2019-04-22T15:20:51.001Z,1.95
2019-04-22T15:23:18.507Z,1.87
2019-04-22T15:25:46.694Z,2.00
2019-04-22T15:28:15.364Z,1.95
2019-04-22T15:30:43.976Z,1.90
2019-04-22T15:33:12.148Z,2.10
2019-04-22T15:35:41.084Z,2.08
2019-04-22T15:38:09.307Z,1.70
2019-04-22T15:40:38.641Z,1.95
2019-04-22T15:43:08.691Z,2.10
2019-04-22T15:45:37.186Z,1.77
2019-04-22T15:48:06.118Z,2.00
2019-04-22T15:50:35.044Z,2.15
2019-04-22T15:53:04.547Z,1.98
2019-04-22T15:55:34.433Z,1.90
2019-04-22T15:58:03.910Z,1.98
2019-04-22T16:00:44.565Z,2.50
2019-04-22T16:03:04.863Z,2.50
2019-04-22T16:05:32.408Z,2.30
2019-04-22T16:08:01.313Z,2.40
2019-04-22T16:10:30.395Z,2.47
2019-04-22T16:13:07.372Z,2.40
2019-04-22T16:15:28.900Z,2.33
2019-04-22T16:17:59.840Z,2.22
2019-04-22T16:20:28.047Z,2.08
2019-04-22T16:23:15.549Z,2.60
2019-04-22T16:25:55.491Z,2.50
2019-04-22T16:28:25.128Z,2.75
2019-04-22T16:30:55.199Z,2.50
2019-04-22T16:33:23.599Z,2.85
2019-04-22T16:35:53.014Z,2.50
2019-04-22T16:38:22.531Z,2.40
2019-04-22T16:40:52.600Z,2.62
2019-04-22T16:43:22.557Z,2.90
2019-04-22T16:45:51.812Z,3.05
2019-04-22T16:48:20.216Z,2.90
2019-04-22T16:50:50.614Z,3.15
2019-04-22T16:53:18.983Z,3.40
2019-04-22T16:55:48.725Z,2.72
2019-04-22T16:58:17.080Z,3.17
2019-04-22T17:00:46.947Z,3.08
2019-04-22T17:03:34.392Z,3.10
2019-04-22T17:06:11.636Z,3.10
2019-04-22T17:08:40.125Z,2.83
2019-04-22T17:11:09.768Z,2.65
2019-04-22T17:13:39.902Z,2.60
2019-04-22T17:16:09.875Z,2.85
2019-04-22T17:18:39.510Z,3.00
2019-04-22T17:21:10.149Z,2.67
2019-04-22T17:23:38.160Z,3.42
2019-04-22T17:26:06.475Z,2.95
2019-04-22T17:28:35.482Z,2.40
2019-04-22T17:31:04.646Z,2.50
2019-04-22T17:33:33.174Z,3.10
2019-04-22T17:36:01.356Z,2.72
2019-04-22T17:38:40.806Z,2.85
2019-04-22T17:41:13.324Z,2.50
2019-04-22T17:43:53.803Z,2.85
2019-04-22T17:46:23.385Z,2.75
2019-04-22T17:49:04.241Z,2.80
2019-04-22T17:51:32.914Z,2.60
2019-04-22T17:54:02.630Z,2.92
2019-04-22T17:56:37.500Z,2.65
2019-04-22T17:59:02.254Z,2.80
2019-04-22T18:01:32.600Z,3.10
2019-04-22T18:03:49.657Z,3.10
2019-04-22T18:06:39.218Z,3.50
2019-04-22T18:09:01.738Z,6.72
2019-04-22T18:11:39.716Z,4.45
2019-04-22T18:14:26.102Z,3.65
2019-04-22T18:16:37.235Z,3.47
2019-04-22T18:19:04.482Z,3.02
2019-04-22T18:21:31.860Z,3.15
2019-04-22T18:23:58.148Z,3.17
2019-04-22T18:26:33.402Z,3.37
2019-04-22T18:29:08.660Z,3.12
2019-04-22T18:31:26.926Z,3.40
2019-04-22T18:34:00.466Z,2.98
2019-04-22T18:36:30.614Z,2.92
2019-04-22T18:39:11.511Z,3.12
2019-04-22T18:41:34.077Z,2.90
2019-04-22T18:44:06.257Z,3.10
2019-04-22T18:46:34.855Z,3.08
2019-04-22T18:49:06.156Z,3.10
2019-04-22T18:51:42.580Z,3.30
2019-04-22T18:54:11.784Z,3.58
2019-04-22T18:56:43.289Z,3.50
2019-04-22T18:59:03.696Z,3.62
2019-04-22T19:01:21.886Z,4.08
2019-04-22T19:04:01.394Z,3.80
2019-04-22T19:06:56.930Z,3.60
2019-04-22T19:09:15.286Z,3.90
2019-04-22T19:11:45.700Z,3.95
2019-04-22T19:14:10.156Z,4.08
2019-04-22T19:16:39.937Z,4.03
2019-04-22T19:19:29.725Z,4.40
2019-04-22T19:21:46.881Z,3.75
2019-04-22T19:24:12.216Z,3.98
2019-04-22T19:26:50.352Z,4.30
2019-04-22T19:30:07.065Z,3.77
2019-04-22T19:34:58.770Z,4.15
2019-04-22T19:37:28.358Z,3.80
2019-04-22T19:40:09.474Z,4.08
2019-04-22T19:42:40.549Z,3.60
2019-04-22T19:45:00.853Z,4.00
2019-04-22T19:47:51.694Z,3.98
2019-04-22T19:50:03.885Z,3.52
2019-04-22T19:52:35.577Z,3.22
2019-04-22T19:55:01.829Z,4.17
2019-04-22T19:57:27.724Z,3.00
2019-04-22T20:00:03.942Z,3.30
2019-04-22T20:02:51.383Z,3.83
2019-04-22T20:05:33.985Z,4.50
2019-04-22T20:07:51.358Z,4.05
2019-04-22T20:10:26.501Z,3.20
2019-04-22T20:12:54.600Z,3.67
2019-04-22T20:15:22.711Z,3.50
2019-04-22T20:18:21.785Z,3.77
2019-04-22T20:20:31.857Z,3.80
2019-04-22T20:23:01.066Z,3.77
2019-04-22T20:25:20.911Z,3.67
2019-04-22T20:28:01.321Z,3.75
2019-04-22T20:30:29.968Z,3.72
2019-04-22T20:32:58.357Z,3.35
2019-04-22T20:35:34.079Z,3.27
2019-04-22T20:37:58.188Z,3.08
2019-04-22T20:40:31.788Z,3.33
2019-04-22T20:43:01.765Z,3.70
2019-04-22T20:45:30.609Z,3.17
2019-04-22T20:48:07.862Z,3.92
2019-04-22T20:50:36.386Z,3.77
2019-04-22T20:53:11.696Z,3.40
2019-04-22T20:55:40.352Z,3.50
2019-04-22T20:58:13.550Z,3.27
2019-04-22T21:00:31.194Z,3.27
2019-04-22T21:02:57.672Z,3.50
2019-04-22T21:05:33.013Z,3.30
2019-04-22T21:08:12.577Z,3.75
2019-04-22T21:10:31.188Z,3.70
2019-04-22T21:13:05.531Z,3.80
2019-04-22T21:15:44.440Z,3.22
2019-04-22T21:18:08.221Z,3.67
2019-04-22T21:20:42.866Z,3.47
2019-04-22T21:23:06.031Z,3.72
2019-04-22T21:25:31.851Z,3.70
2019-04-22T21:28:09.577Z,3.70
2019-04-22T21:30:37.745Z,3.60
2019-04-22T21:33:05.447Z,4.08
2019-04-22T21:35:58.088Z,3.85
2019-04-22T21:38:08.717Z,3.62
2019-04-22T21:40:38.787Z,3.45
2019-04-22T21:43:16.307Z,3.65
2019-04-22T21:45:28.066Z,3.60
2019-04-22T21:48:20.152Z,3.50
2019-04-22T21:53:14.305Z,3.83
2019-04-22T21:55:48.857Z,3.90
2019-04-22T21:58:14.802Z,3.62
2019-04-22T22:00:53.513Z,3.60
2019-04-22T22:03:19.255Z,3.17
2019-04-22T22:05:34.273Z,2.92
2019-04-22T22:08:12.307Z,3.50
2019-04-22T22:10:45.325Z,3.50
2019-04-22T22:13:10.992Z,3.67
2019-04-22T22:15:46.583Z,3.30
2019-04-22T22:18:10.478Z,3.67
2019-04-22T22:20:53.815Z,3.55
2019-04-22T22:23:22.416Z,3.50
2019-04-22T22:25:43.642Z,3.45
2019-04-22T22:28:36.184Z,3.77
2019-04-22T22:33:17.394Z,3.95
2019-04-22T22:35:40.477Z,3.50
2019-04-22T22:38:11.998Z,3.67
2019-04-22T22:40:29.815Z,3.92
2019-04-22T22:42:57.008Z,3.77
2019-04-22T22:45:33.735Z,3.95
2019-04-22T22:48:23.812Z,3.95
2019-04-22T22:50:44.634Z,3.92
2019-04-22T22:53:20.791Z,3.90
2019-04-22T22:55:46.374Z,4.00
2019-04-22T22:58:20.940Z,4.25
2019-04-22T23:00:39.338Z,4.35
2019-04-22T23:05:54.826Z,4.42
2019-04-22T23:08:20.148Z,3.80
2019-04-22T23:10:55.508Z,3.75
2019-04-22T23:13:22.787Z,4.08
2019-04-22T23:15:41.825Z,4.00
2019-04-22T23:17:54.187Z,4.00
2019-04-22T23:20:28.911Z,4.10
2019-04-22T23:23:17.093Z,4.10
2019-04-22T23:25:44.900Z,4.50
2019-04-22T23:28:17.476Z,4.05
2019-04-22T23:30:56.762Z,4.05
2019-04-22T23:33:42.318Z,4.55
2019-04-22T23:36:19.161Z,4.05
2019-04-22T23:39:02.474Z,4.50
2019-04-22T23:41:46.331Z,4.30
2019-04-22T23:44:11.413Z,3.80
2019-04-22T23:46:41.441Z,4.15
2019-04-22T23:49:15.575Z,4.55
2019-04-22T23:51:51.485Z,4.45
2019-04-22T23:54:13.248Z,4.17
2019-04-22T23:56:39.132Z,4.55
2019-04-22T23:59:25.540Z,4.37
